Погода Итапасина 2 недели

Гояс, Бразилия

24 мая-06 июня
  • 24мая
    Сегодня
    +19°
    +31°
    Облачно с прояснениями
    ВремяПогодаТемператураВлажностьДавлениеВетер, м/сВероятность осадков
    00:00Ясно и безоблачно+23°C60 %714 мм0.4 м/с5 %
    03:00Практически безоблачно+20°C70 %713 мм1.6 м/с5 %
    06:00Практически безоблачно+19°C75 %714 мм0.2 м/с5 %
    09:00Облачно с прояснениями+24°C63 %716 мм0.6 м/с5 %
    12:00Облачно с прояснениями+29°C47 %715 мм0.2 м/с5 %
    15:00Облачно с прояснениями+31°C41 %714 мм1.9 м/с5 %
    18:00Облачно с прояснениями+28°C50 %713 мм0.9 м/с5 %
    21:00Облачно с прояснениями+24°C64 %714 мм1.4 м/с5 %
  • 25мая
    Суббота
    +18°
    +32°
    Ясно и безоблачно
    ВремяПогодаТемператураВлажностьДавлениеВетер, м/сВероятность осадков
    00:00Облачно с прояснениями+21°C70 %713 мм1.4 м/с5 %
    03:00Облачно с прояснениями+22°C62 %713 мм0.1 м/с5 %
    06:00Небольшая облачность+19°C74 %713 мм1.0 м/с5 %
    09:00Небольшая облачность+25°C60 %716 мм1.1 м/с5 %
    12:00Ясно и безоблачно+30°C44 %715 мм1.0 м/с5 %
    15:00Ясно и безоблачно+31°C39 %713 мм1.7 м/с5 %
    18:00Практически безоблачно+28°C49 %713 мм0.9 м/с5 %
    21:00Ясно и безоблачно+25°C53 %713 мм0.4 м/с5 %
  • 26мая
    Воскресенье
    +18°
    +32°
    Облачно с прояснениями
    ВремяПогодаТемператураВлажностьДавлениеВетер, м/сВероятность осадков
    00:00Практически безоблачно+22°C62 %714 мм1.5 м/с5 %
    03:00Ясно и безоблачно+21°C66 %713 мм1.1 м/с5 %
    06:00Ясно и безоблачно+18°C81 %713 мм1.7 м/с5 %
    09:00Ясно и безоблачно+24°C60 %716 мм1.4 м/с5 %
    12:00Практически безоблачно+30°C39 %716 мм2.7 м/с5 %
    15:00Облачно с прояснениями+32°C35 %714 мм1.8 м/с5 %
    18:00Облачно с прояснениями+29°C45 %714 мм1.2 м/с5 %
    21:00Облачно с прояснениями+27°C41 %714 мм0.4 м/с5 %
  • 27мая
    Понедельник
    +17°
    +33°
    Ясно и безоблачно
    ВремяПогодаТемператураВлажностьДавлениеВетер, м/сВероятность осадков
    00:00Облачно с прояснениями+22°C55 %714 мм1.3 м/с5 %
    03:00Ясно и безоблачно+20°C62 %713 мм1.2 м/с5 %
    06:00Ясно и безоблачно+18°C68 %714 мм0.4 м/с5 %
    09:00Ясно и безоблачно+24°C50 %716 мм0.5 м/с5 %
    12:00Ясно и безоблачно+30°C35 %716 мм1.7 м/с5 %
    15:00Ясно и безоблачно+32°C31 %714 мм0.6 м/с5 %
    18:00Ясно и безоблачно+28°C45 %714 мм0.2 м/с5 %
    21:00Ясно и безоблачно+23°C51 %714 мм1.6 м/с5 %
  • 28мая
    Вторник
    +19°
    +32°
    Ясно и безоблачно
    ВремяПогодаТемператураВлажностьДавлениеВетер, м/сВероятность осадков
    00:00Ясно и безоблачно+20°C59 %714 мм2.1 м/с5 %
    03:00Ясно и безоблачно+20°C65 %714 мм1.3 м/с5 %
    06:00Ясно и безоблачно+19°C73 %714 мм1.6 м/с5 %
    09:00Ясно и безоблачно+24°C52 %717 мм1.2 м/с5 %
    12:00Практически безоблачно+30°C37 %716 мм1.7 м/с5 %
    15:00Ясно и безоблачно+32°C33 %714 мм0.6 м/с5 %
    18:00Ясно и безоблачно+28°C47 %714 мм0.3 м/с5 %
    21:00Ясно и безоблачно+24°C49 %714 мм1.2 м/с5 %
Мы используем cookies
Соглашаюсь